sensor_id;sensor_type;location;lat;lon;timestamp;pressure;altitude;pressure_sealevel;temperature;humidity
13348;BME280;6743;49.934;9.138;2023-01-31T00:01:27;101285.00;;;4.21;100.00
13348;BME280;6743;49.934;9.138;2023-01-31T00:03:54;101284.16;;;4.20;100.00
13348;BME280;6743;49.934;9.138;2023-01-31T00:06:22;101277.22;;;4.19;100.00
13348;BME280;6743;49.934;9.138;2023-01-31T00:08:50;101288.66;;;4.18;100.00
13348;BME280;6743;49.934;9.138;2023-01-31T00:11:18;101294.09;;;4.15;100.00
13348;BME280;6743;49.934;9.138;2023-01-31T00:13:44;101292.22;;;4.17;100.00
13348;BME280;6743;49.934;9.138;2023-01-31T00:16:13;101299.34;;;4.15;100.00
13348;BME280;6743;49.934;9.138;2023-01-31T00:18:39;101292.44;;;4.14;100.00
13348;BME280;6743;49.934;9.138;2023-01-31T00:21:07;101300.50;;;4.11;100.00
13348;BME280;6743;49.934;9.138;2023-01-31T00:23:33;101304.91;;;4.11;100.00
13348;BME280;6743;49.934;9.138;2023-01-31T00:26:07;101291.16;;;4.07;100.00
13348;BME280;6743;49.934;9.138;2023-01-31T00:28:33;101299.13;;;4.06;100.00
13348;BME280;6743;49.934;9.138;2023-01-31T00:30:59;101296.59;;;4.04;100.00
13348;BME280;6743;49.934;9.138;2023-01-31T00:33:25;101304.47;;;4.04;100.00
13348;BME280;6743;49.934;9.138;2023-01-31T00:35:51;101299.41;;;4.01;100.00
13348;BME280;6743;49.934;9.138;2023-01-31T00:38:17;101299.41;;;4.01;100.00
13348;BME280;6743;49.934;9.138;2023-01-31T00:40:50;101303.00;;;4.00;100.00
13348;BME280;6743;49.934;9.138;2023-01-31T00:43:16;101316.22;;;3.99;100.00
13348;BME280;6743;49.934;9.138;2023-01-31T00:45:42;101316.13;;;4.00;100.00
13348;BME280;6743;49.934;9.138;2023-01-31T00:48:08;101303.00;;;4.00;100.00
13348;BME280;6743;49.934;9.138;2023-01-31T00:50:35;101301.28;;;3.99;100.00
13348;BME280;6743;49.934;9.138;2023-01-31T00:53:01;101317.06;;;3.99;100.00
13348;BME280;6743;49.934;9.138;2023-01-31T00:55:27;101298.75;;;3.97;100.00
13348;BME280;6743;49.934;9.138;2023-01-31T00:57:53;101305.78;;;3.97;100.00
13348;BME280;6743;49.934;9.138;2023-01-31T01:00:19;101304.84;;;3.98;100.00
13348;BME280;6743;49.934;9.138;2023-01-31T01:02:46;101304.94;;;3.96;100.00
13348;BME280;6743;49.934;9.138;2023-01-31T01:05:12;101312.81;;;3.96;100.00
13348;BME280;6743;49.934;9.138;2023-01-31T01:07:38;101303.38;;;3.94;100.00
13348;BME280;6743;49.934;9.138;2023-01-31T01:10:05;101295.59;;;3.92;100.00
13348;BME280;6743;49.934;9.138;2023-01-31T01:12:31;101300.00;;;3.92;100.00
13348;BME280;6743;49.934;9.138;2023-01-31T01:14:57;101297.47;;;3.90;100.00
13348;BME280;6743;49.934;9.138;2023-01-31T01:17:23;101307.13;;;3.90;100.00
13348;BME280;6743;49.934;9.138;2023-01-31T01:19:49;101319.41;;;3.89;100.00
13348;BME280;6743;49.934;9.138;2023-01-31T01:22:15;101326.34;;;3.90;100.00
13348;BME280;6743;49.934;9.138;2023-01-31T01:24:43;101323.72;;;3.90;100.00
13348;BME280;6743;49.934;9.138;2023-01-31T01:27:09;101331.59;;;3.90;100.00
13348;BME280;6743;49.934;9.138;2023-01-31T01:29:36;101328.31;;;3.87;100.00
13348;BME280;6743;49.934;9.138;2023-01-31T01:32:02;101336.75;;;3.92;100.00
13348;BME280;6743;49.934;9.138;2023-01-31T01:34:29;101335.16;;;3.89;100.00
13348;BME280;6743;49.934;9.138;2023-01-31T01:36:55;101336.94;;;3.89;100.00
13348;BME280;6743;49.934;9.138;2023-01-31T01:39:21;101326.62;;;3.86;100.00
13348;BME280;6743;49.934;9.138;2023-01-31T01:41:48;101325.78;;;3.85;100.00
13348;BME280;6743;49.934;9.138;2023-01-31T01:44:48;101315.94;;;3.75;100.00
13348;BME280;6743;49.934;9.138;2023-01-31T01:47:22;101333.75;;;3.84;100.00
13348;BME280;6743;49.934;9.138;2023-01-31T01:49:55;101328.50;;;3.84;100.00
13348;BME280;6743;49.934;9.138;2023-01-31T01:52:22;101311.84;;;3.71;100.00
13348;BME280;6743;49.934;9.138;2023-01-31T01:54:52;101330.38;;;3.82;100.00
13348;BME280;6743;49.934;9.138;2023-01-31T01:57:23;101341.72;;;3.82;100.00
13348;BME280;6743;49.934;9.138;2023-01-31T01:59:56;101338.25;;;3.82;100.00
13348;BME280;6743;49.934;9.138;2023-01-31T02:02:24;101334.69;;;3.83;100.00
13348;BME280;6743;49.934;9.138;2023-01-31T02:04:52;101344.34;;;3.82;100.00
13348;BME280;6743;49.934;9.138;2023-01-31T02:07:18;101334.69;;;3.83;100.00
13348;BME280;6743;49.934;9.138;2023-01-31T02:09:51;101340.03;;;3.81;100.00
13348;BME280;6743;49.934;9.138;2023-01-31T02:12:20;101347.19;;;3.79;100.00
13348;BME280;6743;49.934;9.138;2023-01-31T02:14:47;101346.41;;;3.77;100.00
13348;BME280;6743;49.934;9.138;2023-01-31T02:17:15;101353.44;;;3.77;100.00
13348;BME280;6743;49.934;9.138;2023-01-31T02:19:48;101355.22;;;3.76;100.00
13348;BME280;6743;49.934;9.138;2023-01-31T02:22:20;101354.38;;;3.76;100.00
13348;BME280;6743;49.934;9.138;2023-01-31T02:27:57;101363.09;;;3.76;100.00
13348;BME280;6743;49.934;9.138;2023-01-31T02:30:58;101360.47;;;3.76;100.00
13348;BME280;6743;49.934;9.138;2023-01-31T02:33:34;101368.34;;;3.76;100.00
13348;BME280;6743;49.934;9.138;2023-01-31T02:36:10;101367.41;;;3.77;100.00
13348;BME280;6743;49.934;9.138;2023-01-31T02:38:50;101361.31;;;3.77;100.00
13348;BME280;6743;49.934;9.138;2023-01-31T02:41:26;101350.81;;;3.77;100.00
13348;BME280;6743;49.934;9.138;2023-01-31T02:43:57;101334.78;;;3.67;100.00
13348;BME280;6743;49.934;9.138;2023-01-31T02:47:00;101354.38;;;3.76;100.00
13348;BME280;6743;49.934;9.138;2023-01-31T02:49:36;101352.69;;;3.75;100.00
13348;BME280;6743;49.934;9.138;2023-01-31T02:52:13;101346.72;;;3.73;100.00
13348;BME280;6743;49.934;9.138;2023-01-31T02:54:43;101344.81;;;3.75;100.00
13348;BME280;6743;49.934;9.138;2023-01-31T02:57:29;101347.44;;;3.75;100.00
13348;BME280;6743;49.934;9.138;2023-01-31T02:59:55;101341.34;;;3.74;100.00
13348;BME280;6743;49.934;9.138;2023-01-31T03:02:23;101337.69;;;3.63;100.00
13348;BME280;6743;49.934;9.138;2023-01-31T03:04:51;101359.72;;;3.74;100.00
13348;BME280;6743;49.934;9.138;2023-01-31T03:07:19;101365.94;;;3.73;100.00
13348;BME280;6743;49.934;9.138;2023-01-31T03:09:58;101368.56;;;3.73;100.00
13348;BME280;6743;49.934;9.138;2023-01-31T03:12:35;101363.31;;;3.73;100.00
13348;BME280;6743;49.934;9.138;2023-01-31T03:15:14;101350.19;;;3.73;100.00
13348;BME280;6743;49.934;9.138;2023-01-31T03:17:52;101365.81;;;3.75;100.00
13348;BME280;6743;49.934;9.138;2023-01-31T03:20:28;101360.69;;;3.73;100.00
13348;BME280;6743;49.934;9.138;2023-01-31T03:22:57;101359.91;;;3.71;100.00
13348;BME280;6743;49.934;9.138;2023-01-31T03:25:27;101352.88;;;3.72;100.00
13348;BME280;6743;49.934;9.138;2023-01-31T03:27:56;101363.38;;;3.72;100.00
13348;BME280;6743;49.934;9.138;2023-01-31T03:30:30;101371.34;;;3.70;100.00
13348;BME280;6743;49.934;9.138;2023-01-31T03:33:01;101374.06;;;3.69;100.00
13348;BME280;6743;49.934;9.138;2023-01-31T03:35:33;101381.00;;;3.70;100.00
13348;BME280;6743;49.934;9.138;2023-01-31T03:38:04;101386.34;;;3.68;100.00
13348;BME280;6743;49.934;9.138;2023-01-31T03:40:39;101390.84;;;3.66;100.00
13348;BME280;6743;49.934;9.138;2023-01-31T03:43:11;101389.03;;;3.67;100.00
13348;BME280;6743;49.934;9.138;2023-01-31T03:45:43;101400.50;;;3.66;100.00
13348;BME280;6743;49.934;9.138;2023-01-31T03:48:12;101402.38;;;3.64;100.00
13348;BME280;6743;49.934;9.138;2023-01-31T03:50:47;101394.41;;;3.51;100.00
13348;BME280;6743;49.934;9.138;2023-01-31T03:53:17;101400.84;;;3.60;100.00
13348;BME280;6743;49.934;9.138;2023-01-31T03:55:48;101398.34;;;3.58;100.00
13348;BME280;6743;49.934;9.138;2023-01-31T03:58:18;101391.41;;;3.57;100.00
13348;BME280;6743;49.934;9.138;2023-01-31T04:00:46;101396.81;;;3.54;100.00
13348;BME280;6743;49.934;9.138;2023-01-31T04:03:22;101408.38;;;3.51;100.00
13348;BME280;6743;49.934;9.138;2023-01-31T04:05:50;101401.41;;;3.50;100.00
13348;BME280;6743;49.934;9.138;2023-01-31T04:08:16;101393.63;;;3.49;100.00
13348;BME280;6743;49.934;9.138;2023-01-31T04:10:42;101395.41;;;3.48;100.00
13348;BME280;6743;49.934;9.138;2023-01-31T04:13:08;101401.59;;;3.47;100.00
13348;BME280;6743;49.934;9.138;2023-01-31T04:15:34;101397.19;;;3.48;100.00
13348;BME280;6743;49.934;9.138;2023-01-31T04:18:00;101397.28;;;3.46;100.00
13348;BME280;6743;49.934;9.138;2023-01-31T04:20:26;101378.63;;;3.37;100.00
13348;BME280;6743;49.934;9.138;2023-01-31T04:22:53;101390.38;;;3.45;100.00
13348;BME280;6743;49.934;9.138;2023-01-31T04:25:19;101389.53;;;3.45;100.00
13348;BME280;6743;49.934;9.138;2023-01-31T04:27:45;101382.03;;;3.39;100.00
13348;BME280;6743;49.934;9.138;2023-01-31T04:30:11;101390.53;;;3.42;100.00
13348;BME280;6743;49.934;9.138;2023-01-31T04:32:37;101394.94;;;3.42;100.00
13348;BME280;6743;49.934;9.138;2023-01-31T04:35:04;101387.06;;;3.42;100.00
13348;BME280;6743;49.934;9.138;2023-01-31T04:37:30;101378.34;;;3.41;100.00
13348;BME280;6743;49.934;9.138;2023-01-31T04:39:57;101390.63;;;3.41;100.00
13348;BME280;6743;49.934;9.138;2023-01-31T04:42:23;101370.00;;;3.35;100.00
13348;BME280;6743;49.934;9.138;2023-01-31T04:44:49;101389.69;;;3.42;100.00
13348;BME280;6743;49.934;9.138;2023-01-31T04:47:15;101389.69;;;3.42;100.00
13348;BME280;6743;49.934;9.138;2023-01-31T04:49:40;101386.22;;;3.41;100.00
13348;BME280;6743;49.934;9.138;2023-01-31T04:52:08;101379.66;;;3.34;100.00
13348;BME280;6743;49.934;9.138;2023-01-31T04:54:34;101378.34;;;3.41;100.00
13348;BME280;6743;49.934;9.138;2023-01-31T04:57:02;101388.00;;;3.41;100.00
13348;BME280;6743;49.934;9.138;2023-01-31T04:59:28;101381.91;;;3.40;100.00
13348;BME280;6743;49.934;9.138;2023-01-31T05:01:53;101370.00;;;3.35;100.00
13348;BME280;6743;49.934;9.138;2023-01-31T05:04:20;101376.78;;;3.39;100.00
13348;BME280;6743;49.934;9.138;2023-01-31T05:06:46;101376.00;;;3.37;100.00
13348;BME280;6743;49.934;9.138;2023-01-31T05:09:12;101373.38;;;3.37;100.00
13348;BME280;6743;49.934;9.138;2023-01-31T05:11:38;101365.69;;;3.34;100.00
13348;BME280;6743;49.934;9.138;2023-01-31T05:14:05;101362.22;;;3.33;100.00
13348;BME280;6743;49.934;9.138;2023-01-31T05:16:31;101357.19;;;3.30;100.00
13348;BME280;6743;49.934;9.138;2023-01-31T05:18:57;101325.37;;;3.06;100.00
13348;BME280;6743;49.934;9.138;2023-01-31T05:21:23;101350.78;;;3.20;100.00
13348;BME280;6743;49.934;9.138;2023-01-31T05:23:49;101353.31;;;3.22;100.00
13348;BME280;6743;49.934;9.138;2023-01-31T05:26:15;101357.78;;;3.20;100.00
13348;BME280;6743;49.934;9.138;2023-01-31T05:28:41;101356.94;;;3.19;100.00
13348;BME280;6743;49.934;9.138;2023-01-31T05:31:08;101345.63;;;3.18;100.00
13348;BME280;6743;49.934;9.138;2023-01-31T05:33:34;101349.94;;;3.20;100.00
13348;BME280;6743;49.934;9.138;2023-01-31T05:36:01;101349.09;;;3.19;100.00
13348;BME280;6743;49.934;9.138;2023-01-31T05:38:27;101356.03;;;3.20;100.00
13348;BME280;6743;49.934;9.138;2023-01-31T05:40:53;101327.75;;;3.11;100.00
13348;BME280;6743;49.934;9.138;2023-01-31T05:43:19;101349.09;;;3.19;100.00
13348;BME280;6743;49.934;9.138;2023-01-31T05:45:47;101348.16;;;3.20;100.00
13348;BME280;6743;49.934;9.138;2023-01-31T05:48:13;101347.31;;;3.20;100.00
13348;BME280;6743;49.934;9.138;2023-01-31T05:50:39;101356.09;;;3.18;100.00
13348;BME280;6743;49.934;9.138;2023-01-31T05:53:05;101353.47;;;3.18;100.00
13348;BME280;6743;49.934;9.138;2023-01-31T05:55:31;101367.44;;;3.19;100.00
13348;BME280;6743;49.934;9.138;2023-01-31T05:57:57;101369.13;;;3.20;100.00
13348;BME280;6743;49.934;9.138;2023-01-31T06:00:25;101361.25;;;3.20;100.00
13348;BME280;6743;49.934;9.138;2023-01-31T06:02:51;101348.16;;;3.20;100.00
13348;BME280;6743;49.934;9.138;2023-01-31T06:05:17;101349.84;;;3.21;100.00
13348;BME280;6743;49.934;9.138;2023-01-31T06:07:43;101342.81;;;3.22;100.00
13348;BME280;6743;49.934;9.138;2023-01-31T06:10:10;101351.53;;;3.22;100.00
13348;BME280;6743;49.934;9.138;2023-01-31T06:12:37;101348.91;;;3.22;100.00
13348;BME280;6743;49.934;9.138;2023-01-31T06:15:03;101350.59;;;3.23;100.00
13348;BME280;6743;49.934;9.138;2023-01-31T06:17:29;101341.13;;;3.21;100.00
13348;BME280;6743;49.934;9.138;2023-01-31T06:19:55;101335.03;;;3.20;100.00
13348;BME280;6743;49.934;9.138;2023-01-31T06:22:22;101331.69;;;3.18;100.00
13348;BME280;6743;49.934;9.138;2023-01-31T06:24:48;101335.13;;;3.18;100.00
13348;BME280;6743;49.934;9.138;2023-01-31T06:27:14;101342.25;;;3.16;100.00
13348;BME280;6743;49.934;9.138;2023-01-31T06:29:40;101344.03;;;3.16;100.00
13348;BME280;6743;49.934;9.138;2023-01-31T06:32:06;101339.63;;;3.16;100.00
13348;BME280;6743;49.934;9.138;2023-01-31T06:34:32;101327.16;;;3.06;100.00
13348;BME280;6743;49.934;9.138;2023-01-31T06:36:58;101338.03;;;3.14;100.00
13348;BME280;6743;49.934;9.138;2023-01-31T06:39:25;101346.75;;;3.14;100.00
13348;BME280;6743;49.934;9.138;2023-01-31T06:41:51;101342.25;;;3.16;100.00
13348;BME280;6743;49.934;9.138;2023-01-31T06:44:17;101353.59;;;3.17;100.00
13348;BME280;6743;49.934;9.138;2023-01-31T06:46:43;101346.56;;;3.17;100.00
13348;BME280;6743;49.934;9.138;2023-01-31T06:49:09;101343.97;;;3.17;100.00
13348;BME280;6743;49.934;9.138;2023-01-31T06:51:35;101350.84;;;3.18;100.00
13348;BME280;6743;49.934;9.138;2023-01-31T06:54:01;101354.31;;;3.19;100.00
13348;BME280;6743;49.934;9.138;2023-01-31T06:56:27;101332.22;;;3.09;100.00
13348;BME280;6743;49.934;9.138;2023-01-31T06:58:53;101348.25;;;3.18;100.00
13348;BME280;6743;49.934;9.138;2023-01-31T07:01:19;101347.31;;;3.20;100.00
13348;BME280;6743;49.934;9.138;2023-01-31T07:03:48;101352.66;;;3.18;100.00
13348;BME280;6743;49.934;9.138;2023-01-31T07:06:14;101341.34;;;3.17;100.00
13348;BME280;6743;49.934;9.138;2023-01-31T07:08:42;101351.72;;;3.19;100.00
13348;BME280;6743;49.934;9.138;2023-01-31T07:11:08;101362.97;;;3.21;100.00
13348;BME280;6743;49.934;9.138;2023-01-31T07:13:35;101365.50;;;3.23;100.00
13348;BME280;6743;49.934;9.138;2023-01-31T07:16:01;101370.66;;;3.24;100.00
13348;BME280;6743;49.934;9.138;2023-01-31T07:18:27;101372.31;;;3.25;100.00
13348;BME280;6743;49.934;9.138;2023-01-31T07:20:53;101374.84;;;3.27;100.00
13348;BME280;6743;49.934;9.138;2023-01-31T07:23:19;101380.03;;;3.28;100.00
13348;BME280;6743;49.934;9.138;2023-01-31T07:25:45;101374.69;;;3.30;100.00
13348;BME280;6743;49.934;9.138;2023-01-31T07:28:11;101383.31;;;3.32;100.00
13348;BME280;6743;49.934;9.138;2023-01-31T07:30:38;101381.50;;;3.32;100.00
13348;BME280;6743;49.934;9.138;2023-01-31T07:33:08;101387.53;;;3.34;100.00
13348;BME280;6743;49.934;9.138;2023-01-31T07:35:34;101393.63;;;3.35;100.00
13348;BME280;6743;49.934;9.138;2023-01-31T07:38:00;101395.31;;;3.36;100.00
13348;BME280;6743;49.934;9.138;2023-01-31T07:40:26;101399.53;;;3.38;100.00
13348;BME280;6743;49.934;9.138;2023-01-31T07:42:57;101386.75;;;3.32;100.00
13348;BME280;6743;49.934;9.138;2023-01-31T07:45:24;101395.03;;;3.40;100.00
13348;BME280;6743;49.934;9.138;2023-01-31T07:47:54;101379.66;;;3.34;100.00
13348;BME280;6743;49.934;9.138;2023-01-31T07:50:22;101402.81;;;3.42;100.00
13348;BME280;6743;49.934;9.138;2023-01-31T07:52:48;101392.22;;;3.43;100.00
13348;BME280;6743;49.934;9.138;2023-01-31T07:55:15;101399.16;;;3.44;100.00
13348;BME280;6743;49.934;9.138;2023-01-31T07:57:41;101401.59;;;3.47;100.00
13348;BME280;6743;49.934;9.138;2023-01-31T08:00:08;101405.81;;;3.50;100.00
13348;BME280;6743;49.934;9.138;2023-01-31T08:02:56;101410.88;;;3.53;100.00
13348;BME280;6743;49.934;9.138;2023-01-31T08:05:40;101404.69;;;3.54;100.00
13348;BME280;6743;49.934;9.138;2023-01-31T08:08:06;101400.28;;;3.54;100.00
13348;BME280;6743;49.934;9.138;2023-01-31T08:10:35;101404.44;;;3.59;100.00
13348;BME280;6743;49.934;9.138;2023-01-31T08:13:01;101407.78;;;3.61;100.00
13348;BME280;6743;49.934;9.138;2023-01-31T08:15:27;101399.75;;;3.64;100.00
13348;BME280;6743;49.934;9.138;2023-01-31T08:17:52;101392.63;;;3.66;100.00
13348;BME280;6743;49.934;9.138;2023-01-31T08:20:19;101401.16;;;3.69;100.00
13348;BME280;6743;49.934;9.138;2023-01-31T08:22:45;101379.78;;;3.61;100.00
13348;BME280;6743;49.934;9.138;2023-01-31T08:25:11;101408.72;;;3.74;100.00
13348;BME280;6743;49.934;9.138;2023-01-31T08:27:37;101400.69;;;3.77;100.00
13348;BME280;6743;49.934;9.138;2023-01-31T08:30:04;101386.94;;;3.73;100.00
13348;BME280;6743;49.934;9.138;2023-01-31T08:32:30;101402.28;;;3.79;100.00
13348;BME280;6743;49.934;9.138;2023-01-31T08:34:56;101400.31;;;3.83;100.00
13348;BME280;6743;49.934;9.138;2023-01-31T08:37:23;101415.12;;;3.84;100.00
13348;BME280;6743;49.934;9.138;2023-01-31T08:39:49;101415.88;;;3.86;100.00
13348;BME280;6743;49.934;9.138;2023-01-31T08:42:15;101415.97;;;3.84;100.00
13348;BME280;6743;49.934;9.138;2023-01-31T08:44:41;101407.91;;;3.87;100.00
13348;BME280;6743;49.934;9.138;2023-01-31T08:47:08;101413.25;;;3.86;100.00
13348;BME280;6743;49.934;9.138;2023-01-31T08:49:34;101415.12;;;3.84;100.00
13348;BME280;6743;49.934;9.138;2023-01-31T08:52:01;101408.84;;;3.72;100.00
13348;BME280;6743;49.934;9.138;2023-01-31T08:54:28;101413.44;;;3.83;100.00
13348;BME280;6743;49.934;9.138;2023-01-31T08:56:54;101422.31;;;3.80;100.00
13348;BME280;6743;49.934;9.138;2023-01-31T08:59:20;101411.09;;;3.78;100.00
13348;BME280;6743;49.934;9.138;2023-01-31T09:01:46;101419.34;;;3.72;100.00
13348;BME280;6743;49.934;9.138;2023-01-31T09:04:12;101411.28;;;3.75;100.00
13348;BME280;6743;49.934;9.138;2023-01-31T09:06:38;101410.53;;;3.73;100.00
13348;BME280;6743;49.934;9.138;2023-01-31T09:09:04;101408.84;;;3.72;100.00
13348;BME280;6743;49.934;9.138;2023-01-31T09:11:30;101423.75;;;3.72;100.00
13348;BME280;6743;49.934;9.138;2023-01-31T09:13:56;101431.78;;;3.69;100.00
13348;BME280;6743;49.934;9.138;2023-01-31T09:16:22;101434.25;;;3.72;100.00
13348;BME280;6743;49.934;9.138;2023-01-31T09:18:48;101417.66;;;3.71;100.00
13348;BME280;6743;49.934;9.138;2023-01-31T09:21:18;101420.19;;;3.73;100.00
13348;BME280;6743;49.934;9.138;2023-01-31T09:23:44;101426.28;;;3.73;100.00
13348;BME280;6743;49.934;9.138;2023-01-31T09:26:11;101427.31;;;3.71;100.00
13348;BME280;6743;49.934;9.138;2023-01-31T09:28:38;101431.78;;;3.69;100.00
13348;BME280;6743;49.934;9.138;2023-01-31T09:31:08;101426.63;;;3.67;100.00
13348;BME280;6743;49.934;9.138;2023-01-31T09:33:35;101423.00;;;3.70;100.00
13348;BME280;6743;49.934;9.138;2023-01-31T09:36:04;101405.16;;;3.61;100.00
13348;BME280;6743;49.934;9.138;2023-01-31T09:38:31;101427.94;;;3.74;100.00
13348;BME280;6743;49.934;9.138;2023-01-31T09:41:01;101411.34;;;3.74;100.00
13348;BME280;6743;49.934;9.138;2023-01-31T09:43:33;101404.62;;;3.70;100.00
13348;BME280;6743;49.934;9.138;2023-01-31T09:46:03;101408.38;;;3.80;100.00
13348;BME280;6743;49.934;9.138;2023-01-31T09:48:33;101404.62;;;3.84;100.00
13348;BME280;6743;49.934;9.138;2023-01-31T09:51:02;101386.06;;;3.87;100.00
13348;BME280;6743;49.934;9.138;2023-01-31T09:53:31;101406.13;;;3.88;100.00
13348;BME280;6743;49.934;9.138;2023-01-31T09:56:10;101400.59;;;3.92;100.00
13348;BME280;6743;49.934;9.138;2023-01-31T09:58:43;101415.88;;;4.00;100.00
13348;BME280;6743;49.934;9.138;2023-01-31T10:01:16;101428.62;;;4.06;100.00
13348;BME280;6743;49.934;9.138;2023-01-31T10:03:50;101415.69;;;4.03;100.00
13348;BME280;6743;49.934;9.138;2023-01-31T10:06:23;101431.62;;;4.14;100.00
13348;BME280;6743;49.934;9.138;2023-01-31T10:08:57;101429.00;;;4.14;100.00
13348;BME280;6743;49.934;9.138;2023-01-31T10:11:29;101427.50;;;4.10;100.00
13348;BME280;6743;49.934;9.138;2023-01-31T10:14:00;101424.41;;;4.04;100.00
13348;BME280;6743;49.934;9.138;2023-01-31T10:16:33;101410.63;;;4.00;100.00
13348;BME280;6743;49.934;9.138;2023-01-31T10:19:03;101405.66;;;3.95;100.00
13348;BME280;6743;49.934;9.138;2023-01-31T10:21:35;101407.53;;;3.93;100.00
13348;BME280;6743;49.934;9.138;2023-01-31T10:24:10;101406.03;;;3.89;100.00
13348;BME280;6743;49.934;9.138;2023-01-31T10:26:41;101424.41;;;3.89;100.00
13348;BME280;6743;49.934;9.138;2023-01-31T10:29:14;101391.50;;;3.84;100.00
13348;BME280;6743;49.934;9.138;2023-01-31T10:31:45;101405.47;;;3.84;100.00
13348;BME280;6743;49.934;9.138;2023-01-31T10:34:17;101396.75;;;3.84;100.00
13348;BME280;6743;49.934;9.138;2023-01-31T10:36:50;101397.50;;;3.86;100.00
13348;BME280;6743;49.934;9.138;2023-01-31T10:39:20;101393.00;;;3.88;100.00
13348;BME280;6743;49.934;9.138;2023-01-31T10:42:01;101387.47;;;3.92;100.00
13348;BME280;6743;49.934;9.138;2023-01-31T10:44:35;101363.56;;;3.83;100.00
13348;BME280;6743;49.934;9.138;2023-01-31T10:47:11;101385.78;;;3.91;100.00
13348;BME280;6743;49.934;9.138;2023-01-31T10:49:37;101366.00;;;3.86;100.00
13348;BME280;6743;49.934;9.138;2023-01-31T10:52:11;101367.41;;;3.91;100.00
13348;BME280;6743;49.934;9.138;2023-01-31T10:54:48;101355.50;;;3.86;100.00
13348;BME280;6743;49.934;9.138;2023-01-31T10:57:18;101360.47;;;3.90;100.00
13348;BME280;6743;49.934;9.138;2023-01-31T10:59:45;101352.59;;;3.90;100.00
13348;BME280;6743;49.934;9.138;2023-01-31T11:02:21;101356.81;;;3.93;100.00
13348;BME280;6743;49.934;9.138;2023-01-31T11:04:50;101332.34;;;3.92;100.00
13348;BME280;6743;49.934;9.138;2023-01-31T11:07:17;101328.66;;;3.95;100.00
13348;BME280;6743;49.934;9.138;2023-01-31T11:09:47;101313.97;;;3.92;100.00
13348;BME280;6743;49.934;9.138;2023-01-31T11:12:16;101318.91;;;3.97;100.00
13348;BME280;6743;49.934;9.138;2023-01-31T11:14:42;101318.84;;;3.99;100.00
13348;BME280;6743;49.934;9.138;2023-01-31T11:17:14;101307.41;;;4.00;100.00
13348;BME280;6743;49.934;9.138;2023-01-31T11:19:45;101290.03;;;3.97;100.00
13348;BME280;6743;49.934;9.138;2023-01-31T11:22:21;101297.16;;;3.95;100.00
13348;BME280;6743;49.934;9.138;2023-01-31T11:24:49;101297.72;;;4.00;100.00
13348;BME280;6743;49.934;9.138;2023-01-31T11:27:23;101296.75;;;4.01;100.00
13348;BME280;6743;49.934;9.138;2023-01-31T11:29:50;101293.12;;;4.04;100.00
13348;BME280;6743;49.934;9.138;2023-01-31T11:32:20;101295.66;;;4.05;100.00
13348;BME280;6743;49.934;9.138;2023-01-31T11:34:55;101268.00;;;4.00;100.00
13348;BME280;6743;49.934;9.138;2023-01-31T11:37:22;101287.56;;;4.08;100.00
13348;BME280;6743;49.934;9.138;2023-01-31T11:39:54;101258.53;;;3.97;100.00
13348;BME280;6743;49.934;9.138;2023-01-31T11:42:21;101268.16;;;4.11;100.00
13348;BME280;6743;49.934;9.138;2023-01-31T11:44:58;101268.06;;;4.12;100.00
13348;BME280;6743;49.934;9.138;2023-01-31T11:47:39;101263.56;;;4.14;100.00
13348;BME280;6743;49.934;9.138;2023-01-31T11:50:18;101263.44;;;4.16;100.00
13348;BME280;6743;49.934;9.138;2023-01-31T11:52:45;101261.66;;;4.16;100.00
13348;BME280;6743;49.934;9.138;2023-01-31T11:55:16;101248.75;;;4.13;100.00
13348;BME280;6743;49.934;9.138;2023-01-31T11:57:44;101248.44;;;4.18;100.00
13348;BME280;6743;49.934;9.138;2023-01-31T12:00:20;101238.22;;;4.13;100.00
13348;BME280;6743;49.934;9.138;2023-01-31T12:02:52;101235.22;;;4.19;100.00
13348;BME280;6743;49.934;9.138;2023-01-31T12:05:32;101235.22;;;4.19;100.00
13348;BME280;6743;49.934;9.138;2023-01-31T12:07:59;101233.44;;;4.20;100.00
13348;BME280;6743;49.934;9.138;2023-01-31T12:10:30;101230.78;;;4.20;100.00
13348;BME280;6743;49.934;9.138;2023-01-31T12:12:58;101228.88;;;4.22;100.00
13348;BME280;6743;49.934;9.138;2023-01-31T12:15:26;101218.19;;;4.25;100.00
13348;BME280;6743;49.934;9.138;2023-01-31T12:17:53;101216.41;;;4.25;100.00
13348;BME280;6743;49.934;9.138;2023-01-31T12:20:27;101214.53;;;4.27;100.00
13348;BME280;6743;49.934;9.138;2023-01-31T12:23:05;101216.09;;;4.30;100.00
13348;BME280;6743;49.934;9.138;2023-01-31T12:25:46;101213.37;;;4.31;100.00
13348;BME280;6743;49.934;9.138;2023-01-31T12:28:27;101206.25;;;4.33;100.00
13348;BME280;6743;49.934;9.138;2023-01-31T12:31:17;101207.94;;;4.34;100.00
13348;BME280;6743;49.934;9.138;2023-01-31T12:34:02;101206.03;;;4.36;100.00
13348;BME280;6743;49.934;9.138;2023-01-31T12:36:40;101212.97;;;4.37;100.00
13348;BME280;6743;49.934;9.138;2023-01-31T12:39:21;101197.97;;;4.40;100.00
13348;BME280;6743;49.934;9.138;2023-01-31T12:41:59;101177.69;;;4.42;100.00
13348;BME280;6743;49.934;9.138;2023-01-31T12:44:36;101168.84;;;4.43;100.00
13348;BME280;6743;49.934;9.138;2023-01-31T12:47:26;101165.25;;;4.44;100.00
13348;BME280;6743;49.934;9.138;2023-01-31T12:50:16;101147.00;;;4.42;100.00
13348;BME280;6743;49.934;9.138;2023-01-31T12:52:57;101141.44;;;4.47;100.00
13348;BME280;6743;49.934;9.138;2023-01-31T12:55:38;101153.62;;;4.48;100.00
13348;BME280;6743;49.934;9.138;2023-01-31T12:58:20;101156.16;;;4.49;100.00
13348;BME280;6743;49.934;9.138;2023-01-31T13:00:57;101163.06;;;4.50;100.00
13348;BME280;6743;49.934;9.138;2023-01-31T13:03:35;101143.72;;;4.51;100.00
13348;BME280;6743;49.934;9.138;2023-01-31T13:06:06;101141.84;;;4.53;100.00
13348;BME280;6743;49.934;9.138;2023-01-31T13:08:36;101120.63;;;4.56;100.00
13348;BME280;6743;49.934;9.138;2023-01-31T13:11:06;101108.22;;;4.58;100.00
13348;BME280;6743;49.934;9.138;2023-01-31T13:13:38;101083.41;;;4.50;100.00
13348;BME280;6743;49.934;9.138;2023-01-31T13:16:11;101095.06;;;4.58;100.00